createdAt,value
2024-03-02T00:03:10.622Z,6.61
2024-03-02T00:08:18.606Z,6.57
2024-03-02T00:13:25.384Z,6.53
2024-03-02T00:18:32.454Z,6.45
2024-03-02T00:23:37.513Z,6.37
2024-03-02T00:28:44.804Z,6.34
2024-03-02T00:33:49.722Z,6.33
2024-03-02T00:38:55.901Z,6.38
2024-03-02T00:44:03.297Z,6.46
2024-03-02T00:49:07.314Z,6.50
2024-03-02T00:54:12.934Z,6.49
2024-03-02T00:59:15.925Z,6.48
2024-03-02T01:04:19.062Z,6.48
2024-03-02T01:09:23.627Z,6.37
2024-03-02T01:14:26.723Z,6.37
2024-03-02T01:19:29.806Z,6.34
2024-03-02T01:24:34.337Z,6.27
2024-03-02T01:29:37.339Z,6.26
2024-03-02T01:34:40.317Z,6.31
2024-03-02T01:39:44.850Z,6.24
2024-03-02T01:44:48.158Z,6.16
2024-03-02T01:49:51.841Z,6.04
2024-03-02T01:54:56.202Z,5.98
2024-03-02T01:59:59.280Z,5.85
2024-03-02T02:05:02.289Z,5.72
2024-03-02T02:10:07.745Z,5.62
2024-03-02T02:15:30.052Z,5.63
2024-03-02T02:20:33.324Z,5.70
2024-03-02T02:25:37.758Z,5.58
2024-03-02T02:30:40.783Z,5.62
2024-03-02T02:35:43.851Z,5.61
2024-03-02T02:40:48.292Z,5.57
2024-03-02T02:45:51.359Z,5.53
2024-03-02T02:50:54.416Z,5.44
2024-03-02T02:55:58.721Z,5.43
2024-03-02T03:01:01.728Z,5.33
2024-03-02T03:06:05.261Z,5.47
2024-03-02T03:17:57.058Z,5.61
2024-03-02T03:23:00.057Z,5.56
2024-03-02T03:28:04.502Z,5.66
2024-03-02T03:33:08.935Z,5.54
2024-03-02T03:38:11.850Z,5.54
2024-03-02T03:43:14.688Z,5.42
2024-03-02T03:48:19.757Z,5.53
2024-03-02T03:53:23.417Z,5.53
2024-03-02T03:58:26.251Z,5.52
2024-03-02T04:03:31.432Z,5.46
2024-03-02T04:08:34.322Z,5.40
2024-03-02T04:13:37.310Z,5.43
2024-03-02T04:18:41.725Z,5.36
2024-03-02T04:23:44.648Z,5.31
2024-03-02T04:28:47.665Z,5.26
2024-03-02T04:33:52.049Z,5.24
2024-03-02T04:38:55.028Z,5.19
2024-03-02T04:43:57.941Z,5.06
2024-03-02T04:49:02.292Z,5.08
2024-03-02T04:54:05.311Z,5.12
2024-03-02T04:59:08.814Z,5.13
2024-03-02T05:04:13.658Z,5.02
2024-03-02T05:09:16.579Z,5.15
2024-03-02T05:14:19.601Z,5.21
2024-03-02T05:19:23.879Z,5.21
2024-03-02T05:24:28.393Z,5.15
2024-03-02T05:29:31.247Z,5.14
2024-03-02T05:34:36.552Z,5.12
2024-03-02T05:39:39.620Z,5.09
2024-03-02T05:44:42.521Z,5.05
2024-03-02T05:49:46.774Z,5.02
2024-03-02T05:54:50.078Z,4.93
2024-03-02T05:59:53.157Z,4.75
2024-03-02T06:04:58.429Z,4.68
2024-03-02T06:10:01.538Z,4.73
2024-03-02T06:15:05.086Z,4.75
2024-03-02T06:20:10.814Z,4.82
2024-03-02T06:25:14.331Z,4.90
2024-03-02T06:30:17.731Z,4.98
2024-03-02T06:35:22.041Z,5.08
2024-03-02T06:40:24.874Z,5.13
2024-03-02T06:45:27.941Z,5.22
2024-03-02T06:50:32.146Z,5.37
2024-03-02T06:55:35.025Z,5.52
2024-03-02T07:00:37.881Z,5.64
2024-03-02T07:05:43.141Z,5.55
2024-03-02T07:10:45.991Z,5.51
2024-03-02T07:16:12.343Z,5.45
2024-03-02T07:21:16.548Z,5.50
2024-03-02T07:31:26.228Z,6.04
2024-03-02T07:36:30.515Z,6.29
2024-03-02T07:41:33.873Z,6.40
2024-03-02T07:46:36.908Z,6.72
2024-03-02T07:51:41.201Z,6.99
2024-03-02T07:56:44.183Z,7.22
2024-03-02T08:07:25.629Z,7.61
2024-03-02T08:12:28.742Z,7.91
2024-03-02T08:17:34.214Z,8.63
2024-03-02T08:22:38.862Z,9.08
2024-03-02T08:27:42.288Z,9.81
2024-03-02T08:32:46.207Z,10.44
2024-03-02T08:37:50.853Z,10.32
2024-03-02T08:42:54.630Z,10.38
2024-03-02T08:47:57.696Z,10.75
2024-03-02T08:53:02.128Z,10.93
2024-03-02T08:58:05.604Z,10.99
2024-03-02T09:03:08.890Z,11.45
2024-03-02T09:08:13.110Z,11.92
2024-03-02T09:13:16.111Z,11.87
2024-03-02T09:18:19.145Z,11.71
2024-03-02T09:23:23.610Z,11.99
2024-03-02T09:28:26.630Z,12.83
2024-03-02T09:33:29.810Z,12.63
2024-03-02T09:38:35.731Z,12.77
2024-03-02T09:43:38.903Z,12.53
2024-03-02T09:48:42.026Z,12.61
2024-03-02T09:53:46.534Z,12.57
2024-03-02T09:58:49.710Z,12.98
2024-03-02T10:03:53.364Z,13.06
2024-03-02T10:08:58.043Z,13.75
2024-03-02T10:14:09.509Z,13.78
2024-03-02T10:19:18.838Z,14.45
2024-03-02T10:24:24.477Z,13.83
2024-03-02T10:29:29.564Z,13.59
2024-03-02T10:34:33.390Z,14.03
2024-03-02T10:39:38.592Z,14.16
2024-03-02T10:44:41.880Z,14.91
2024-03-02T10:49:45.613Z,14.90
2024-03-02T10:54:50.058Z,15.21
2024-03-02T10:59:58.011Z,15.48
2024-03-02T11:05:10.053Z,15.68
2024-03-02T11:10:15.375Z,17.82
2024-03-02T11:15:21.519Z,18.58
2024-03-02T11:20:25.811Z,18.36
2024-03-02T11:25:30.475Z,18.51
2024-03-02T11:30:52.908Z,19.34
2024-03-02T11:35:57.804Z,18.91
2024-03-02T11:41:04.838Z,18.00
2024-03-02T11:46:09.347Z,18.34
2024-03-02T11:51:13.948Z,19.21
2024-03-02T11:56:23.037Z,19.49
2024-03-02T12:01:26.233Z,18.88
2024-03-02T12:06:30.452Z,18.64
2024-03-02T12:11:34.942Z,18.91
2024-03-02T12:16:39.801Z,19.58
2024-03-02T12:21:43.011Z,19.38
2024-03-02T12:26:48.187Z,19.06
2024-03-02T12:31:51.476Z,18.80
2024-03-02T12:36:54.654Z,18.28
2024-03-02T12:41:59.034Z,18.55
2024-03-02T12:47:02.480Z,17.80
2024-03-02T12:52:06.396Z,17.53
2024-03-02T12:57:10.974Z,18.17
2024-03-02T13:02:19.768Z,18.08
2024-03-02T13:07:23.921Z,19.89
2024-03-02T13:12:28.357Z,20.59
2024-03-02T13:17:36.913Z,20.37
2024-03-02T13:22:41.331Z,21.61
2024-03-02T13:27:45.689Z,20.81
2024-03-02T13:32:48.651Z,21.68
2024-03-02T13:37:52.029Z,21.24
2024-03-02T13:42:56.731Z,20.82
2024-03-02T13:47:59.783Z,18.87
2024-03-02T13:53:04.180Z,16.53
2024-03-02T13:58:09.042Z,18.88
2024-03-02T14:03:12.046Z,18.00
2024-03-02T14:08:15.256Z,17.96
2024-03-02T14:13:19.596Z,15.73
2024-03-02T14:18:23.400Z,17.80
2024-03-02T14:23:29.284Z,19.43
2024-03-02T14:28:47.991Z,18.66
2024-03-02T14:33:54.217Z,18.94
2024-03-02T14:38:57.489Z,18.82
2024-03-02T14:44:01.761Z,18.27
2024-03-02T14:49:05.000Z,17.75
2024-03-02T14:54:08.488Z,17.65
2024-03-02T14:59:12.808Z,17.69
2024-03-02T15:04:18.496Z,17.50
2024-03-02T15:09:23.139Z,17.26
2024-03-02T15:14:27.465Z,17.19
2024-03-02T15:19:30.497Z,17.27
2024-03-02T15:24:33.542Z,17.31
2024-03-02T15:29:37.955Z,16.37
2024-03-02T15:34:41.052Z,16.05
2024-03-02T15:39:45.143Z,16.07
2024-03-02T15:44:49.486Z,15.07
2024-03-02T15:49:52.423Z,14.41
2024-03-02T15:54:55.375Z,14.33
2024-03-02T15:59:59.777Z,14.06
2024-03-02T16:05:02.724Z,14.01
2024-03-02T16:10:08.833Z,13.61
2024-03-02T16:15:13.367Z,13.68
2024-03-02T16:20:16.462Z,13.39
2024-03-02T16:25:19.630Z,13.38
2024-03-02T16:30:25.667Z,13.37
2024-03-02T16:35:28.827Z,13.22
2024-03-02T16:40:32.829Z,13.11
2024-03-02T16:45:37.243Z,13.15
2024-03-02T16:50:40.243Z,12.88
2024-03-02T16:55:43.450Z,12.68
2024-03-02T17:00:48.301Z,12.52
2024-03-02T17:05:51.299Z,12.38
2024-03-02T17:10:54.402Z,12.29
2024-03-02T17:15:58.840Z,12.11
2024-03-02T17:21:01.898Z,12.08
2024-03-02T17:26:05.106Z,12.04
2024-03-02T17:31:10.043Z,12.01
2024-03-02T17:36:14.250Z,11.97
2024-03-02T17:41:17.330Z,11.93
2024-03-02T17:46:21.982Z,11.94
2024-03-02T17:51:25.553Z,11.85
2024-03-02T17:56:28.628Z,11.75
2024-03-02T18:01:32.956Z,11.60
2024-03-02T18:06:36.302Z,11.46
2024-03-02T18:11:40.488Z,11.31
2024-03-02T18:16:45.015Z,11.17
2024-03-02T18:21:50.231Z,11.10
2024-03-02T18:26:53.356Z,11.02
2024-03-02T18:31:58.859Z,11.00
2024-03-02T18:37:02.006Z,10.88
2024-03-02T18:42:05.733Z,10.78
2024-03-02T18:47:11.991Z,10.72
2024-03-02T18:52:18.812Z,10.61
2024-03-02T18:57:22.414Z,10.53
2024-03-02T19:02:27.298Z,10.53
2024-03-02T19:07:31.094Z,10.53
2024-03-02T19:12:34.966Z,10.39
2024-03-02T19:17:39.512Z,10.23
2024-03-02T19:22:43.205Z,10.08
2024-03-02T19:27:46.525Z,10.00
2024-03-02T19:32:50.996Z,9.87
2024-03-02T19:37:56.403Z,9.95
2024-03-02T19:42:59.428Z,9.88
2024-03-02T19:48:04.517Z,9.96
2024-03-02T19:53:08.170Z,9.92
2024-03-02T19:58:11.251Z,9.95
2024-03-02T20:03:16.174Z,9.87
2024-03-02T20:08:19.143Z,9.83
2024-03-02T20:18:53.529Z,9.59
2024-03-02T20:23:56.734Z,9.68
2024-03-02T20:28:59.593Z,9.57
2024-03-02T20:34:03.977Z,9.53
2024-03-02T20:39:07.252Z,9.44
2024-03-02T20:44:10.230Z,9.55
2024-03-02T20:49:14.683Z,9.31
2024-03-02T20:54:17.714Z,9.38
2024-03-02T20:59:20.685Z,9.38
2024-03-02T21:04:25.215Z,9.32
2024-03-02T21:09:28.107Z,9.34
2024-03-02T21:14:31.197Z,9.35
2024-03-02T21:19:36.623Z,9.33
2024-03-02T21:24:41.657Z,9.29
2024-03-02T21:29:44.751Z,9.17
2024-03-02T21:34:49.411Z,9.23
2024-03-02T21:39:52.334Z,9.24
2024-03-02T21:44:55.669Z,9.17
2024-03-02T21:50:00.201Z,9.21
2024-03-02T21:55:03.366Z,9.07
2024-03-02T22:00:07.754Z,9.00
2024-03-02T22:05:18.066Z,9.09
2024-03-02T22:10:21.023Z,9.00
2024-03-02T22:15:24.020Z,9.06
2024-03-02T22:20:28.270Z,9.06
2024-03-02T22:25:31.163Z,9.04
2024-03-02T22:30:34.142Z,9.10
2024-03-02T22:35:38.360Z,9.03
2024-03-02T22:40:41.226Z,9.04
2024-03-02T22:45:44.163Z,8.94
2024-03-02T22:50:48.747Z,9.04
2024-03-02T22:55:51.779Z,9.04
2024-03-02T23:00:59.041Z,9.03
2024-03-02T23:06:04.461Z,8.99
2024-03-02T23:11:07.696Z,9.00
2024-03-02T23:16:10.825Z,8.99
2024-03-02T23:21:15.217Z,9.03
2024-03-02T23:26:18.181Z,8.99
2024-03-02T23:31:21.268Z,8.94
2024-03-02T23:36:25.560Z,8.95
2024-03-02T23:41:28.517Z,8.98
2024-03-02T23:46:31.472Z,8.98
2024-03-02T23:51:35.758Z,8.89
2024-03-02T23:56:38.750Z,8.84
